createdAt,value
2023-02-17T00:01:20.505Z,97.40
2023-02-17T00:03:49.363Z,97.30
2023-02-17T00:06:20.233Z,97.20
2023-02-17T00:08:49.434Z,97.20
2023-02-17T00:11:18.341Z,97.00
2023-02-17T00:13:46.795Z,97.00
2023-02-17T00:16:18.961Z,97.00
2023-02-17T00:18:47.548Z,97.00
2023-02-17T00:21:17.654Z,96.90
2023-02-17T00:23:46.856Z,96.80
2023-02-17T00:26:15.273Z,96.80
2023-02-17T00:28:44.606Z,96.80
2023-02-17T00:31:17.756Z,96.80
2023-02-17T00:33:46.271Z,96.70
2023-02-17T00:36:18.619Z,96.70
2023-02-17T00:38:48.885Z,96.60
2023-02-17T00:41:17.405Z,96.60
2023-02-17T00:43:45.769Z,96.50
2023-02-17T00:46:14.129Z,96.70
2023-02-17T00:48:43.848Z,96.70
2023-02-17T00:51:13.775Z,96.70
2023-02-17T00:53:42.046Z,96.60
2023-02-17T00:56:10.593Z,96.60
2023-02-17T00:58:39.199Z,96.50
2023-02-17T01:01:07.417Z,96.50
2023-02-17T01:03:35.650Z,96.30
2023-02-17T01:06:10.892Z,96.50
2023-02-17T01:08:39.100Z,96.40
2023-02-17T01:11:07.476Z,96.40
2023-02-17T01:13:35.644Z,96.30
2023-02-17T01:16:04.197Z,96.20
2023-02-17T01:18:32.967Z,96.30
2023-02-17T01:21:01.148Z,96.30
2023-02-17T01:23:30.968Z,96.30
2023-02-17T01:25:59.199Z,96.30
2023-02-17T01:28:27.556Z,96.40
2023-02-17T01:30:55.867Z,96.70
2023-02-17T01:33:24.096Z,96.50
2023-02-17T01:35:52.259Z,96.50
2023-02-17T01:38:20.422Z,96.50
2023-02-17T01:40:51.930Z,96.80
2023-02-17T01:43:23.058Z,96.20
2023-02-17T01:45:53.018Z,96.40
2023-02-17T01:48:23.870Z,96.40
2023-02-17T01:50:56.695Z,96.40
2023-02-17T01:53:30.688Z,96.30
2023-02-17T01:56:00.494Z,96.30
2023-02-17T01:58:29.856Z,96.40
2023-02-17T02:01:01.013Z,96.50
2023-02-17T02:03:32.471Z,96.50
2023-02-17T02:06:03.258Z,96.80
2023-02-17T02:08:40.729Z,97.10
2023-02-17T02:11:10.424Z,97.50
2023-02-17T02:13:38.672Z,97.80
2023-02-17T02:16:14.410Z,98.00
2023-02-17T02:18:50.682Z,98.30
2023-02-17T02:21:58.314Z,98.50
2023-02-17T02:24:36.610Z,98.80
2023-02-17T02:27:32.198Z,98.70
2023-02-17T02:30:27.442Z,98.90
2023-02-17T02:33:07.528Z,99.20
2023-02-17T02:35:45.434Z,99.30
2023-02-17T02:38:19.608Z,99.40
2023-02-17T02:40:51.076Z,99.70
2023-02-17T02:43:19.956Z,99.90
2023-02-17T02:45:48.350Z,99.90
2023-02-17T02:48:17.873Z,99.90
2023-02-17T02:51:01.905Z,99.90
2023-02-17T02:53:43.894Z,99.90
2023-02-17T02:56:21.786Z,99.90
2023-02-17T02:58:57.466Z,99.90
2023-02-17T03:01:38.784Z,99.90
2023-02-17T03:04:14.387Z,99.90
2023-02-17T03:06:49.381Z,99.90
2023-02-17T03:09:22.167Z,99.90
2023-02-17T03:11:51.689Z,99.90
2023-02-17T03:14:22.202Z,99.90
2023-02-17T03:16:53.164Z,99.90
2023-02-17T03:19:26.924Z,99.90
2023-02-17T03:22:00.575Z,99.90
2023-02-17T03:24:29.138Z,99.90
2023-02-17T03:26:57.395Z,99.90
2023-02-17T03:29:25.609Z,99.90
2023-02-17T03:31:53.970Z,99.90
2023-02-17T03:34:22.484Z,99.90
2023-02-17T03:36:51.983Z,99.90
2023-02-17T03:39:20.161Z,99.90
2023-02-17T03:41:50.521Z,99.90
2023-02-17T03:44:19.547Z,99.90
2023-02-17T03:46:48.348Z,99.90
2023-02-17T03:49:16.586Z,99.90
2023-02-17T03:51:45.028Z,99.90
2023-02-17T03:54:14.595Z,99.90
2023-02-17T03:56:42.784Z,99.90
2023-02-17T03:59:10.969Z,99.90
2023-02-17T04:01:39.515Z,99.90
2023-02-17T04:04:11.000Z,99.90
2023-02-17T04:06:39.266Z,99.90
2023-02-17T04:09:07.546Z,99.90
2023-02-17T04:11:37.823Z,99.90
2023-02-17T04:14:06.228Z,99.90
2023-02-17T04:16:34.667Z,99.90
2023-02-17T04:19:02.869Z,99.90
2023-02-17T04:21:31.221Z,99.90
2023-02-17T04:24:01.569Z,99.90
2023-02-17T04:26:30.362Z,99.90
2023-02-17T04:28:59.914Z,99.90
2023-02-17T04:31:28.324Z,99.90
2023-02-17T04:33:56.958Z,99.90
2023-02-17T04:36:25.160Z,99.90
2023-02-17T04:38:53.378Z,99.90
2023-02-17T04:41:21.636Z,99.90
2023-02-17T04:43:49.922Z,99.90
2023-02-17T04:46:19.515Z,99.90
2023-02-17T04:48:47.798Z,99.90
2023-02-17T04:51:16.229Z,99.90
2023-02-17T04:53:44.373Z,99.90
2023-02-17T04:56:12.671Z,99.90
2023-02-17T04:58:41.081Z,99.90
2023-02-17T05:01:10.995Z,99.90
2023-02-17T05:03:40.727Z,99.90
2023-02-17T05:06:09.076Z,99.90
2023-02-17T05:08:37.332Z,99.90
2023-02-17T05:11:05.907Z,99.90
2023-02-17T05:13:34.157Z,99.90
2023-02-17T05:16:02.729Z,99.90
2023-02-17T05:18:30.903Z,99.90
2023-02-17T05:21:00.630Z,99.90
2023-02-17T05:23:28.868Z,99.90
2023-02-17T05:25:57.289Z,99.90
2023-02-17T05:28:25.617Z,99.90
2023-02-17T05:30:53.871Z,99.90
2023-02-17T05:33:22.269Z,99.90
2023-02-17T05:35:50.423Z,99.90
2023-02-17T05:38:19.986Z,99.90
2023-02-17T05:40:48.168Z,99.90
2023-02-17T05:43:16.438Z,99.90
2023-02-17T05:45:44.552Z,99.90
2023-02-17T05:48:12.675Z,99.90
2023-02-17T05:50:41.168Z,99.90
2023-02-17T05:53:09.534Z,99.90
2023-02-17T05:55:39.133Z,99.90
2023-02-17T05:58:07.593Z,99.90
2023-02-17T06:00:35.818Z,99.90
2023-02-17T06:03:04.101Z,99.90
2023-02-17T06:05:32.447Z,99.90
2023-02-17T06:08:00.762Z,99.90
2023-02-17T06:10:28.976Z,99.90
2023-02-17T06:12:58.768Z,99.90
2023-02-17T06:15:27.172Z,99.90
2023-02-17T06:17:55.609Z,99.90
2023-02-17T06:20:23.799Z,99.90
2023-02-17T06:22:52.395Z,99.90
2023-02-17T06:25:20.817Z,99.90
2023-02-17T06:27:49.271Z,99.90
2023-02-17T06:30:18.964Z,99.90
2023-02-17T06:32:47.174Z,99.90
2023-02-17T06:35:15.382Z,99.90
2023-02-17T06:37:43.909Z,99.90
2023-02-17T06:40:13.161Z,99.90
2023-02-17T06:42:41.890Z,99.90
2023-02-17T06:45:10.847Z,99.90
2023-02-17T06:47:40.521Z,99.90
2023-02-17T06:50:12.007Z,99.90
2023-02-17T06:52:40.221Z,99.90
2023-02-17T06:55:10.401Z,99.90
2023-02-17T06:57:39.091Z,99.90
2023-02-17T07:00:08.726Z,99.90
2023-02-17T07:02:40.716Z,99.90
2023-02-17T07:05:09.531Z,99.90
2023-02-17T07:07:37.652Z,99.90
2023-02-17T07:10:07.088Z,99.90
2023-02-17T07:12:35.313Z,99.90
2023-02-17T07:15:04.684Z,99.90
2023-02-17T07:17:33.354Z,99.90
2023-02-17T07:20:03.048Z,99.90
2023-02-17T07:22:31.220Z,99.90
2023-02-17T07:24:59.652Z,99.90
2023-02-17T07:27:27.778Z,99.90
2023-02-17T07:29:56.426Z,99.90
2023-02-17T07:32:24.953Z,99.90
2023-02-17T07:34:53.226Z,99.90
2023-02-17T07:37:22.857Z,99.90
2023-02-17T07:39:52.373Z,99.90
2023-02-17T07:42:21.002Z,99.90
2023-02-17T07:44:49.336Z,99.90
2023-02-17T07:47:17.617Z,99.90
2023-02-17T07:49:46.010Z,99.90
2023-02-17T07:52:14.327Z,99.90
2023-02-17T07:54:44.092Z,99.90
2023-02-17T07:57:12.313Z,99.90
2023-02-17T07:59:40.510Z,99.90
2023-02-17T08:02:08.994Z,99.90
2023-02-17T08:04:37.424Z,99.90
2023-02-17T08:07:05.657Z,99.90
2023-02-17T08:09:51.347Z,99.90
2023-02-17T08:12:39.573Z,99.90
2023-02-17T08:15:10.214Z,99.90
2023-02-17T08:17:38.561Z,99.90
2023-02-17T08:20:09.385Z,99.90
2023-02-17T08:22:38.002Z,99.90
2023-02-17T08:25:07.039Z,99.90
2023-02-17T08:27:36.837Z,99.90
2023-02-17T08:30:06.452Z,99.90
2023-02-17T08:32:34.770Z,99.90
2023-02-17T08:35:03.337Z,99.90
2023-02-17T08:37:32.143Z,99.90
2023-02-17T08:40:00.545Z,99.90
2023-02-17T08:42:29.498Z,99.90
2023-02-17T08:44:59.356Z,99.90
2023-02-17T08:47:27.950Z,99.90
2023-02-17T08:49:56.107Z,99.90
2023-02-17T08:52:24.328Z,99.90
2023-02-17T08:54:52.805Z,99.90
2023-02-17T08:57:22.470Z,99.90
2023-02-17T08:59:51.268Z,99.90
2023-02-17T09:02:21.265Z,99.90
2023-02-17T09:04:49.756Z,99.90
2023-02-17T09:07:18.484Z,99.90
2023-02-17T09:09:46.681Z,99.90
2023-02-17T09:12:14.968Z,99.90
2023-02-17T09:14:43.424Z,99.90
2023-02-17T09:17:11.750Z,99.90
2023-02-17T09:19:41.915Z,99.90
2023-02-17T09:22:15.464Z,99.90
2023-02-17T09:24:48.651Z,99.90
2023-02-17T09:27:16.940Z,99.90
2023-02-17T09:29:45.306Z,99.90
2023-02-17T09:32:13.519Z,99.90
2023-02-17T09:34:49.613Z,99.90
2023-02-17T09:37:18.674Z,99.90
2023-02-17T09:39:47.503Z,99.90
2023-02-17T09:42:20.462Z,99.90
2023-02-17T09:44:52.352Z,99.90
2023-02-17T09:47:24.516Z,99.90
2023-02-17T09:49:58.136Z,99.90
2023-02-17T09:52:31.685Z,99.90
2023-02-17T09:55:05.188Z,99.90
2023-02-17T09:57:37.104Z,99.90
2023-02-17T10:00:10.638Z,99.90
2023-02-17T10:02:48.172Z,99.90
2023-02-17T10:05:23.369Z,99.90
2023-02-17T10:07:57.923Z,99.90
2023-02-17T10:10:31.030Z,99.90
2023-02-17T10:13:03.810Z,99.90
2023-02-17T10:15:40.174Z,99.90
2023-02-17T10:18:14.007Z,99.90
2023-02-17T10:20:51.827Z,99.90
2023-02-17T10:23:22.424Z,99.90
2023-02-17T10:26:10.001Z,99.90
2023-02-17T10:28:51.059Z,99.90
2023-02-17T10:31:31.227Z,99.90
2023-02-17T10:34:04.327Z,99.90
2023-02-17T10:36:48.064Z,99.90
2023-02-17T10:39:24.193Z,99.90
2023-02-17T10:41:53.784Z,99.90
2023-02-17T10:44:25.232Z,99.90
2023-02-17T10:46:55.142Z,99.90
2023-02-17T10:49:28.230Z,99.90
2023-02-17T10:52:03.342Z,99.90
2023-02-17T10:54:38.454Z,99.90
2023-02-17T10:57:11.995Z,99.90
2023-02-17T10:59:42.149Z,99.90
2023-02-17T11:02:20.729Z,99.90
2023-02-17T11:04:51.542Z,99.90
2023-02-17T11:07:28.091Z,99.90
2023-02-17T11:10:02.747Z,99.90
2023-02-17T11:12:34.846Z,99.90
2023-02-17T11:15:06.641Z,99.90
2023-02-17T11:17:37.997Z,99.90
2023-02-17T11:20:09.416Z,99.90
2023-02-17T11:22:41.724Z,99.90
2023-02-17T11:25:23.864Z,99.90
2023-02-17T11:27:54.109Z,99.90
2023-02-17T11:30:23.189Z,99.90
2023-02-17T11:32:51.987Z,99.90
2023-02-17T11:35:26.442Z,99.90
2023-02-17T11:38:02.814Z,99.90
2023-02-17T11:40:33.324Z,99.90
2023-02-17T11:43:02.711Z,99.90
2023-02-17T11:45:37.451Z,99.90
2023-02-17T11:48:20.056Z,99.90
2023-02-17T11:50:57.006Z,99.90
2023-02-17T11:53:35.140Z,99.90
2023-02-17T11:56:14.215Z,99.90
2023-02-17T11:58:56.451Z,99.90
2023-02-17T12:01:49.981Z,99.90
2023-02-17T12:04:37.871Z,99.90
2023-02-17T12:07:25.786Z,99.90
2023-02-17T12:10:05.127Z,99.90
2023-02-17T12:12:47.656Z,99.90
2023-02-17T12:15:30.371Z,99.90
2023-02-17T12:18:10.985Z,99.90
2023-02-17T12:20:49.770Z,99.90
2023-02-17T12:23:32.717Z,99.90
2023-02-17T12:26:09.661Z,99.90
2023-02-17T12:28:59.222Z,99.90
2023-02-17T12:31:46.653Z,99.90
2023-02-17T12:34:22.474Z,99.90
2023-02-17T12:36:53.193Z,99.90
2023-02-17T12:39:25.585Z,99.90
2023-02-17T12:41:59.879Z,99.90
2023-02-17T12:44:31.211Z,99.90
2023-02-17T12:47:04.820Z,99.90
2023-02-17T12:49:40.192Z,99.90
2023-02-17T12:52:16.678Z,99.90
2023-02-17T12:54:50.653Z,99.90
2023-02-17T12:57:23.424Z,99.90
2023-02-17T12:59:54.003Z,99.90
2023-02-17T13:02:24.249Z,99.90
2023-02-17T13:04:54.748Z,99.90
2023-02-17T13:07:46.898Z,99.90
2023-02-17T13:10:33.498Z,99.90
2023-02-17T13:13:07.224Z,99.90
2023-02-17T13:15:42.258Z,99.90
2023-02-17T13:18:15.714Z,99.90
2023-02-17T13:20:56.734Z,99.90
2023-02-17T13:23:36.309Z,99.90
2023-02-17T13:26:29.996Z,99.90
2023-02-17T13:29:20.713Z,99.90
2023-02-17T13:31:53.429Z,99.90
2023-02-17T13:34:31.185Z,99.90
2023-02-17T13:37:03.195Z,99.90
2023-02-17T13:39:34.966Z,99.90
2023-02-17T13:42:04.785Z,99.90
2023-02-17T13:44:40.262Z,99.90
2023-02-17T13:47:16.021Z,99.90
2023-02-17T13:49:52.444Z,99.90
2023-02-17T13:52:24.417Z,99.90
2023-02-17T13:54:54.700Z,99.90
2023-02-17T13:57:28.936Z,99.90
2023-02-17T14:00:09.942Z,99.90
2023-02-17T14:02:48.116Z,99.90
2023-02-17T14:05:22.300Z,99.90
2023-02-17T14:07:51.217Z,99.90
2023-02-17T14:10:21.294Z,99.90
2023-02-17T14:12:50.268Z,99.90
2023-02-17T14:15:21.944Z,99.90
2023-02-17T14:17:50.637Z,99.90
2023-02-17T14:20:34.156Z,99.90
2023-02-17T14:23:05.628Z,99.90
2023-02-17T14:25:36.457Z,99.90
2023-02-17T14:28:04.926Z,99.90
2023-02-17T14:30:36.500Z,99.90
2023-02-17T14:33:10.162Z,99.90
2023-02-17T14:35:39.523Z,99.90
2023-02-17T14:38:10.746Z,99.90
2023-02-17T14:40:40.331Z,99.90
2023-02-17T14:43:08.994Z,99.90
2023-02-17T14:45:38.868Z,99.90
2023-02-17T14:48:07.149Z,99.90
2023-02-17T14:50:42.201Z,99.90
2023-02-17T14:53:14.828Z,99.90
2023-02-17T14:55:47.814Z,99.90
2023-02-17T14:58:20.886Z,99.90
2023-02-17T15:00:51.604Z,99.90
2023-02-17T15:03:19.937Z,99.90
2023-02-17T15:05:48.700Z,99.90
2023-02-17T15:08:19.853Z,99.90
2023-02-17T15:10:48.668Z,99.90
2023-02-17T15:13:19.215Z,99.90
2023-02-17T15:15:49.572Z,99.90
2023-02-17T15:18:20.839Z,99.90
2023-02-17T15:20:51.215Z,99.90
2023-02-17T15:23:22.960Z,99.90
2023-02-17T15:25:53.394Z,99.90
2023-02-17T15:28:22.551Z,99.90
2023-02-17T15:30:54.458Z,99.90
2023-02-17T15:33:25.448Z,99.90
2023-02-17T15:35:55.485Z,99.90
2023-02-17T15:38:25.087Z,99.90
2023-02-17T15:40:56.762Z,99.90
2023-02-17T15:46:14.145Z,99.90
2023-02-17T15:48:45.521Z,99.90
2023-02-17T15:51:15.177Z,99.90
2023-02-17T15:53:44.016Z,99.90
2023-02-17T15:56:20.586Z,99.90
2023-02-17T15:58:50.820Z,99.90
2023-02-17T16:01:28.396Z,99.90
2023-02-17T16:03:58.852Z,99.90
2023-02-17T16:06:28.286Z,99.90
2023-02-17T16:08:58.826Z,99.90
2023-02-17T16:11:28.712Z,99.90
2023-02-17T16:13:57.420Z,99.90
2023-02-17T16:16:29.599Z,99.90
2023-02-17T16:18:59.349Z,99.90
2023-02-17T16:21:27.595Z,99.90
2023-02-17T16:23:59.802Z,99.90
2023-02-17T16:26:33.615Z,99.90
2023-02-17T16:29:03.479Z,99.90
2023-02-17T16:31:35.778Z,99.90
2023-02-17T16:34:05.391Z,99.90
2023-02-17T16:36:36.471Z,99.90
2023-02-17T16:39:11.974Z,99.90
2023-02-17T16:41:40.610Z,99.90
2023-02-17T16:44:09.109Z,99.90
2023-02-17T16:46:38.344Z,99.90
2023-02-17T16:49:18.965Z,99.90
2023-02-17T16:51:47.293Z,99.90
2023-02-17T16:54:17.849Z,99.90
2023-02-17T16:56:48.468Z,99.90
2023-02-17T16:59:18.627Z,99.90
2023-02-17T17:01:47.390Z,99.90
2023-02-17T17:04:17.399Z,99.90
2023-02-17T17:06:48.190Z,99.90
2023-02-17T17:09:17.653Z,99.90
2023-02-17T17:11:46.243Z,99.90
2023-02-17T17:14:14.835Z,99.90
2023-02-17T17:16:46.090Z,99.90
2023-02-17T17:19:16.573Z,99.90
2023-02-17T17:21:44.809Z,99.90
2023-02-17T17:24:13.093Z,99.90
2023-02-17T17:26:45.258Z,99.90
2023-02-17T17:29:15.912Z,99.90
2023-02-17T17:31:44.801Z,99.90
2023-02-17T17:34:13.265Z,99.90
2023-02-17T17:36:44.930Z,99.90
2023-02-17T17:39:16.669Z,99.90
2023-02-17T17:41:45.131Z,99.90
2023-02-17T17:44:13.332Z,99.90
2023-02-17T17:46:42.135Z,99.90
2023-02-17T17:49:13.402Z,99.90
2023-02-17T17:51:43.322Z,99.90
2023-02-17T17:54:11.873Z,99.90
2023-02-17T17:56:42.887Z,99.90
2023-02-17T17:59:12.092Z,99.90
2023-02-17T18:01:40.429Z,99.90
2023-02-17T18:04:09.378Z,99.90
2023-02-17T18:06:41.677Z,99.90
2023-02-17T18:09:30.265Z,99.90
2023-02-17T18:12:02.774Z,99.90
2023-02-17T18:14:32.241Z,99.90
2023-02-17T18:17:00.741Z,99.90
2023-02-17T18:19:31.617Z,99.90
2023-02-17T18:21:59.951Z,99.90
2023-02-17T18:24:29.577Z,99.90
2023-02-17T18:26:57.843Z,99.90
2023-02-17T18:29:26.411Z,99.90
2023-02-17T18:31:54.930Z,99.90
2023-02-17T18:34:23.326Z,99.90
2023-02-17T18:36:51.974Z,99.90
2023-02-17T18:39:20.237Z,99.90
2023-02-17T18:41:50.050Z,99.90
2023-02-17T18:44:18.955Z,99.90
2023-02-17T18:46:47.253Z,99.90
2023-02-17T18:49:15.673Z,99.90
2023-02-17T18:51:44.163Z,99.90
2023-02-17T18:54:13.084Z,99.90
2023-02-17T18:56:41.399Z,99.90
2023-02-17T18:59:11.136Z,99.90
2023-02-17T19:01:41.075Z,99.90
2023-02-17T19:04:10.206Z,99.90
2023-02-17T19:06:38.372Z,99.90
2023-02-17T19:09:07.130Z,99.90
2023-02-17T19:11:35.978Z,99.90
2023-02-17T19:14:05.167Z,99.90
2023-02-17T19:16:34.797Z,99.90
2023-02-17T19:19:03.297Z,99.90
2023-02-17T19:21:31.850Z,99.90
2023-02-17T19:24:00.826Z,99.90
2023-02-17T19:26:29.017Z,99.90
2023-02-17T19:28:57.464Z,99.90
2023-02-17T19:31:25.816Z,99.90
2023-02-17T19:33:55.474Z,99.90
2023-02-17T19:36:24.191Z,99.90
2023-02-17T19:38:52.745Z,99.90
2023-02-17T19:41:21.373Z,99.90
2023-02-17T19:43:50.893Z,99.90
2023-02-17T19:46:22.884Z,99.90
2023-02-17T19:48:51.346Z,99.90
2023-02-17T19:51:21.124Z,99.90
2023-02-17T19:53:49.651Z,99.90
2023-02-17T19:56:20.316Z,99.90
2023-02-17T19:58:49.148Z,99.90
2023-02-17T20:01:19.803Z,99.90
2023-02-17T20:03:48.465Z,99.90
2023-02-17T20:06:19.226Z,99.90
2023-02-17T20:08:52.541Z,99.90
2023-02-17T20:11:20.855Z,99.90
2023-02-17T20:13:49.149Z,99.90
2023-02-17T20:16:18.632Z,99.90
2023-02-17T20:18:49.903Z,99.90
2023-02-17T20:21:21.398Z,99.90
2023-02-17T20:23:51.227Z,99.90
2023-02-17T20:26:21.783Z,99.90
2023-02-17T20:28:51.019Z,99.90
2023-02-17T20:31:19.664Z,99.90
2023-02-17T20:33:48.751Z,99.90
2023-02-17T20:36:17.474Z,99.90
2023-02-17T20:38:46.238Z,99.90
2023-02-17T20:41:18.916Z,99.90
2023-02-17T20:43:47.369Z,99.90
2023-02-17T20:46:20.897Z,99.90
2023-02-17T20:48:49.185Z,99.90
2023-02-17T20:51:17.541Z,99.90
2023-02-17T20:53:46.509Z,99.90
2023-02-17T20:56:19.256Z,99.90
2023-02-17T20:58:48.418Z,99.90
2023-02-17T21:01:17.849Z,99.90
2023-02-17T21:03:47.053Z,99.90
2023-02-17T21:06:22.170Z,99.90
2023-02-17T21:08:53.304Z,99.90
2023-02-17T21:11:23.600Z,99.90
2023-02-17T21:13:51.939Z,99.90
2023-02-17T21:16:23.070Z,99.90
2023-02-17T21:18:51.880Z,99.90
2023-02-17T21:21:20.903Z,99.90
2023-02-17T21:23:49.261Z,99.90
2023-02-17T21:26:18.511Z,99.90
2023-02-17T21:28:48.946Z,99.90
2023-02-17T21:31:17.628Z,99.90
2023-02-17T21:33:46.751Z,99.90
2023-02-17T21:36:17.741Z,99.90
2023-02-17T21:38:46.685Z,99.90
2023-02-17T21:41:16.678Z,99.90
2023-02-17T21:44:03.949Z,99.90
2023-02-17T21:46:33.204Z,99.90
2023-02-17T21:49:02.531Z,99.90
2023-02-17T21:51:31.439Z,99.90
2023-02-17T21:54:00.242Z,99.90
2023-02-17T21:56:29.288Z,99.90
2023-02-17T21:58:58.748Z,99.90
2023-02-17T22:01:28.301Z,99.90
2023-02-17T22:03:57.673Z,99.90
2023-02-17T22:06:28.583Z,99.90
2023-02-17T22:08:57.333Z,99.90
2023-02-17T22:11:27.486Z,99.90
2023-02-17T22:13:56.789Z,99.90
2023-02-17T22:16:27.363Z,99.90
2023-02-17T22:18:55.574Z,99.90
2023-02-17T22:21:23.915Z,99.90
2023-02-17T22:23:52.103Z,99.90
2023-02-17T22:26:22.379Z,99.90
2023-02-17T22:28:50.779Z,99.90
2023-02-17T22:31:21.456Z,99.90
2023-02-17T22:33:51.388Z,99.90
2023-02-17T22:36:22.692Z,99.90
2023-02-17T22:38:51.286Z,99.90
2023-02-17T22:41:21.144Z,99.90
2023-02-17T22:43:50.777Z,99.90
2023-02-17T22:46:21.775Z,99.90
2023-02-17T22:48:52.935Z,99.90
2023-02-17T22:51:23.647Z,99.90
2023-02-17T22:53:51.868Z,99.90
2023-02-17T22:56:20.547Z,99.90
2023-02-17T22:58:50.469Z,99.90
2023-02-17T23:01:21.699Z,99.90
2023-02-17T23:03:54.458Z,99.90
2023-02-17T23:06:26.518Z,99.90
2023-02-17T23:08:55.572Z,99.90
2023-02-17T23:11:39.998Z,99.90
2023-02-17T23:14:09.274Z,99.90
2023-02-17T23:16:38.358Z,99.90
2023-02-17T23:19:09.584Z,99.90
2023-02-17T23:21:38.296Z,99.90
2023-02-17T23:24:07.091Z,99.90
2023-02-17T23:26:35.420Z,99.90
2023-02-17T23:29:03.838Z,99.90
2023-02-17T23:31:32.755Z,99.90
2023-02-17T23:34:01.504Z,99.90
2023-02-17T23:36:31.304Z,99.90
2023-02-17T23:38:59.959Z,99.90
2023-02-17T23:41:28.813Z,99.90
2023-02-17T23:43:57.156Z,99.90
2023-02-17T23:46:25.437Z,99.90
2023-02-17T23:48:53.798Z,99.90
2023-02-17T23:51:22.085Z,99.90
2023-02-17T23:53:51.817Z,99.90
2023-02-17T23:56:24.160Z,99.90
2023-02-17T23:58:52.547Z,99.90
